createdAt,value
2022-10-13T00:01:13.401Z,23.50
2022-10-13T00:03:42.025Z,23.50
2022-10-13T00:06:11.156Z,23.50
2022-10-13T00:08:38.863Z,23.50
2022-10-13T00:11:17.253Z,23.50
2022-10-13T00:13:45.388Z,23.50
2022-10-13T00:16:14.433Z,23.50
2022-10-13T00:18:42.169Z,23.50
2022-10-13T00:21:12.519Z,23.40
2022-10-13T00:23:39.956Z,23.50
2022-10-13T00:26:09.044Z,23.50
2022-10-13T00:28:36.608Z,23.50
2022-10-13T00:31:03.818Z,23.50
2022-10-13T00:33:30.833Z,23.50
2022-10-13T00:35:57.828Z,23.40
2022-10-13T00:38:24.872Z,23.40
2022-10-13T00:40:55.040Z,23.50
2022-10-13T00:43:25.237Z,23.40
2022-10-13T00:45:53.264Z,23.50
2022-10-13T00:48:28.429Z,23.40
2022-10-13T00:50:58.352Z,23.50
2022-10-13T00:53:32.748Z,23.40
2022-10-13T00:55:59.895Z,23.40
2022-10-13T00:58:32.979Z,23.40
2022-10-13T01:01:00.166Z,23.50
2022-10-13T01:03:27.720Z,23.40
2022-10-13T01:05:59.352Z,23.40
2022-10-13T01:08:27.440Z,23.40
2022-10-13T01:11:22.862Z,23.40
2022-10-13T01:14:09.547Z,23.40
2022-10-13T01:17:05.431Z,23.40
2022-10-13T01:20:06.252Z,23.40
2022-10-13T01:23:12.988Z,23.40
2022-10-13T01:26:18.544Z,23.40
2022-10-13T01:29:25.253Z,23.40
2022-10-13T01:32:23.370Z,23.40
2022-10-13T01:35:03.344Z,23.40
2022-10-13T01:37:38.075Z,23.40
2022-10-13T01:40:24.115Z,23.40
2022-10-13T01:43:14.947Z,23.30
2022-10-13T01:45:57.123Z,23.30
2022-10-13T01:48:26.224Z,23.30
2022-10-13T01:50:55.744Z,23.30
2022-10-13T01:53:24.011Z,23.30
2022-10-13T01:55:53.262Z,23.30
2022-10-13T01:58:21.865Z,23.30
2022-10-13T02:01:06.242Z,23.30
2022-10-13T02:04:07.240Z,23.30
2022-10-13T02:06:51.971Z,23.30
2022-10-13T02:09:43.929Z,23.30
2022-10-13T02:12:39.871Z,23.30
2022-10-13T02:15:09.345Z,23.30
2022-10-13T02:17:36.748Z,23.30
2022-10-13T02:20:06.803Z,23.30
2022-10-13T02:22:40.908Z,23.30
2022-10-13T02:25:08.893Z,23.30
2022-10-13T02:27:35.946Z,23.30
2022-10-13T02:30:03.018Z,23.30
2022-10-13T02:32:30.128Z,23.30
2022-10-13T02:34:57.384Z,23.30
2022-10-13T02:37:25.905Z,23.40
2022-10-13T02:39:53.284Z,23.30
2022-10-13T02:42:20.815Z,23.30
2022-10-13T02:44:48.103Z,23.30
2022-10-13T02:47:15.171Z,23.30
2022-10-13T02:49:42.173Z,23.30
2022-10-13T02:52:09.194Z,23.30
2022-10-13T02:54:36.333Z,23.30
2022-10-13T02:57:03.458Z,23.30
2022-10-13T02:59:30.815Z,23.30
2022-10-13T03:01:57.847Z,23.30
2022-10-13T03:04:24.909Z,23.30
2022-10-13T03:06:51.929Z,23.30
2022-10-13T03:09:19.128Z,23.30
2022-10-13T03:11:46.620Z,23.30
2022-10-13T03:14:13.668Z,23.30
2022-10-13T03:16:40.683Z,23.30
2022-10-13T03:19:07.704Z,23.30
2022-10-13T03:21:34.776Z,23.30
2022-10-13T03:24:01.765Z,23.30
2022-10-13T03:26:28.931Z,23.30
2022-10-13T03:28:55.978Z,23.20
2022-10-13T03:31:23.262Z,23.20
2022-10-13T03:33:50.661Z,23.20
2022-10-13T03:36:18.494Z,23.20
2022-10-13T03:38:45.692Z,23.20
2022-10-13T03:41:17.958Z,23.30
2022-10-13T03:43:45.850Z,23.20
2022-10-13T03:46:14.804Z,23.30
2022-10-13T03:48:42.430Z,23.20
2022-10-13T03:51:15.528Z,23.30
2022-10-13T03:53:42.633Z,23.30
2022-10-13T03:56:15.575Z,23.30
2022-10-13T03:58:43.177Z,23.30
2022-10-13T04:01:12.822Z,23.30
2022-10-13T04:03:40.317Z,23.20
2022-10-13T04:06:07.555Z,23.20
2022-10-13T04:08:34.869Z,23.20
2022-10-13T04:11:04.388Z,23.20
2022-10-13T04:13:32.004Z,23.20
2022-10-13T04:16:03.755Z,23.30
2022-10-13T04:18:31.272Z,23.20
2022-10-13T04:20:58.351Z,23.20
2022-10-13T04:23:25.470Z,23.20
2022-10-13T04:25:52.515Z,23.20
2022-10-13T04:28:19.581Z,23.20
2022-10-13T04:30:49.384Z,23.20
2022-10-13T04:33:17.043Z,23.20
2022-10-13T04:35:44.228Z,23.20
2022-10-13T04:38:11.306Z,23.20
2022-10-13T04:40:38.448Z,23.20
2022-10-13T04:43:05.509Z,23.20
2022-10-13T04:45:32.597Z,23.20
2022-10-13T04:48:01.300Z,23.20
2022-10-13T04:50:28.853Z,23.20
2022-10-13T04:52:55.899Z,23.20
2022-10-13T04:55:22.960Z,23.20
2022-10-13T04:57:49.957Z,23.20
2022-10-13T05:00:17.486Z,23.20
2022-10-13T05:02:44.586Z,23.10
2022-10-13T05:05:11.805Z,23.10
2022-10-13T05:07:38.810Z,23.10
2022-10-13T05:10:06.019Z,23.10
2022-10-13T05:12:33.132Z,23.10
2022-10-13T05:15:00.926Z,23.10
2022-10-13T05:17:35.027Z,23.10
2022-10-13T05:20:02.767Z,23.10
2022-10-13T05:29:54.275Z,23.10
2022-10-13T05:39:15.084Z,23.20
2022-10-13T05:42:51.373Z,23.10
2022-10-13T05:54:33.872Z,23.20
2022-10-13T05:57:06.128Z,23.20
2022-10-13T05:59:41.987Z,23.20
2022-10-13T06:02:12.398Z,23.20
2022-10-13T06:04:44.801Z,23.20
2022-10-13T06:07:12.783Z,23.20
2022-10-13T06:09:41.509Z,23.30
2022-10-13T06:12:09.726Z,23.30
2022-10-13T06:14:36.935Z,23.30
2022-10-13T06:29:11.121Z,23.50
2022-10-13T06:31:38.208Z,23.60
2022-10-13T06:34:05.296Z,23.60
2022-10-13T06:36:32.315Z,23.60
2022-10-13T06:38:59.314Z,23.60
2022-10-13T06:41:26.560Z,23.70
2022-10-13T06:43:53.565Z,23.70
2022-10-13T06:46:20.711Z,23.70
2022-10-13T06:48:51.214Z,23.80
2022-10-13T06:51:18.260Z,23.90
2022-10-13T06:53:45.556Z,23.90
2022-10-13T06:56:14.348Z,23.90
2022-10-13T06:58:41.351Z,24.00
2022-10-13T07:01:09.309Z,24.00
2022-10-13T07:03:36.408Z,24.10
2022-10-13T07:06:05.270Z,24.10
2022-10-13T07:08:33.156Z,24.10
2022-10-13T07:11:00.309Z,24.10
2022-10-13T07:13:27.727Z,24.20
2022-10-13T07:15:54.897Z,24.20
2022-10-13T07:18:22.039Z,24.30
2022-10-13T07:20:49.115Z,24.30
2022-10-13T07:23:16.141Z,24.30
2022-10-13T07:25:43.167Z,24.30
2022-10-13T07:28:10.240Z,24.30
2022-10-13T07:30:39.623Z,24.30
2022-10-13T07:33:07.217Z,24.30
2022-10-13T07:35:34.389Z,24.30
2022-10-13T07:49:31.547Z,24.40
2022-10-13T07:51:58.601Z,24.40
2022-10-13T07:54:27.509Z,24.40
2022-10-13T07:56:56.083Z,24.50
2022-10-13T08:03:04.361Z,24.50
2022-10-13T08:05:31.378Z,24.50
2022-10-13T08:07:58.781Z,24.60
2022-10-13T08:10:26.590Z,24.60
2022-10-13T08:12:53.656Z,24.60
2022-10-13T08:15:20.737Z,24.60
2022-10-13T08:38:07.795Z,24.70
2022-10-13T08:40:35.357Z,24.70
2022-10-13T08:43:07.447Z,24.70
2022-10-13T08:45:42.484Z,24.70
2022-10-13T08:48:21.946Z,24.70
2022-10-13T08:50:54.467Z,24.70
2022-10-13T08:53:31.470Z,24.70
2022-10-13T08:56:10.477Z,24.70
2022-10-13T08:58:40.885Z,24.80
2022-10-13T09:01:15.723Z,24.80
2022-10-13T09:03:55.351Z,24.80
2022-10-13T09:06:29.023Z,24.80
2022-10-13T09:09:02.556Z,24.80
2022-10-13T09:11:34.322Z,24.90
2022-10-13T09:14:08.973Z,24.90
2022-10-13T09:16:45.114Z,24.90
2022-10-13T09:19:17.731Z,24.90
2022-10-13T09:21:45.723Z,24.90
2022-10-13T09:24:16.362Z,24.90
2022-10-13T09:26:46.898Z,25.00
2022-10-13T09:29:21.712Z,24.90
2022-10-13T09:31:48.900Z,25.00
2022-10-13T09:34:25.935Z,24.90
2022-10-13T09:37:01.243Z,24.90
2022-10-13T09:39:29.183Z,24.90
2022-10-13T09:42:25.819Z,24.90
2022-10-13T09:45:14.985Z,25.00
2022-10-13T09:47:49.427Z,25.00
2022-10-13T09:50:19.546Z,25.00
2022-10-13T09:52:48.136Z,25.00
2022-10-13T09:55:34.521Z,25.00
2022-10-13T09:58:16.190Z,25.10
2022-10-13T10:00:43.838Z,25.10
2022-10-13T10:03:28.034Z,25.10
2022-10-13T10:05:58.170Z,25.10
2022-10-13T10:09:04.541Z,25.10
2022-10-13T10:11:41.591Z,25.10
2022-10-13T10:14:26.374Z,25.20
2022-10-13T10:17:23.515Z,25.20
2022-10-13T10:20:10.288Z,25.20
2022-10-13T10:23:06.194Z,25.10
2022-10-13T10:25:59.411Z,25.10
2022-10-13T10:29:00.942Z,25.10
2022-10-13T10:31:49.820Z,25.10
2022-10-13T10:34:50.734Z,25.10
2022-10-13T10:37:39.952Z,25.20
2022-10-13T10:40:34.872Z,25.20
2022-10-13T10:43:26.430Z,25.20
2022-10-13T10:45:57.908Z,25.20
2022-10-13T10:48:33.117Z,25.20
2022-10-13T10:51:01.318Z,25.20
2022-10-13T10:53:45.359Z,25.10
2022-10-13T10:56:38.494Z,25.10
2022-10-13T10:59:36.737Z,25.20
2022-10-13T11:02:34.171Z,25.20
2022-10-13T11:05:06.084Z,25.20
2022-10-13T11:07:55.630Z,25.20
2022-10-13T11:10:23.609Z,25.30
2022-10-13T11:13:17.495Z,25.30
2022-10-13T11:15:46.481Z,25.30
2022-10-13T11:18:53.305Z,25.30
2022-10-13T11:21:20.612Z,25.40
2022-10-13T11:23:49.715Z,25.40
2022-10-13T11:26:31.350Z,25.40
2022-10-13T11:28:59.829Z,25.50
2022-10-13T11:31:35.929Z,25.50
2022-10-13T11:34:04.003Z,25.50
2022-10-13T11:36:55.784Z,25.60
2022-10-13T11:39:50.424Z,25.60
2022-10-13T11:42:36.218Z,25.60
2022-10-13T11:45:22.889Z,25.60
2022-10-13T11:48:28.458Z,25.60
2022-10-13T11:51:23.942Z,25.70
2022-10-13T11:54:13.213Z,25.70
2022-10-13T11:56:53.323Z,25.70
2022-10-13T11:59:33.138Z,25.70
2022-10-13T12:02:19.463Z,25.70
2022-10-13T12:05:05.362Z,25.70
2022-10-13T12:07:36.364Z,25.70
2022-10-13T12:10:07.487Z,25.70
2022-10-13T12:12:35.790Z,25.70
2022-10-13T12:15:06.799Z,25.70
2022-10-13T12:17:39.183Z,25.70
2022-10-13T12:20:23.459Z,25.70
2022-10-13T12:22:53.236Z,25.70
2022-10-13T12:25:23.081Z,25.70
2022-10-13T12:27:55.910Z,25.70
2022-10-13T12:30:26.338Z,25.70
2022-10-13T12:32:56.698Z,25.70
2022-10-13T12:35:29.935Z,25.70
2022-10-13T12:38:00.367Z,25.70
2022-10-13T12:40:28.632Z,25.70
2022-10-13T12:42:56.743Z,25.70
2022-10-13T12:45:31.650Z,25.80
2022-10-13T12:47:58.806Z,25.80
2022-10-13T12:50:36.650Z,25.80
2022-10-13T12:53:24.160Z,25.80
2022-10-13T12:55:59.249Z,25.80
2022-10-13T12:58:30.668Z,25.80
2022-10-13T13:01:18.951Z,25.90
2022-10-13T13:03:54.195Z,25.80
2022-10-13T13:06:25.336Z,25.90
2022-10-13T13:09:19.865Z,25.90
2022-10-13T13:11:47.676Z,25.90
2022-10-13T13:14:38.357Z,25.90
2022-10-13T13:17:52.947Z,25.90
2022-10-13T13:20:31.874Z,25.80
2022-10-13T13:22:59.397Z,25.80
2022-10-13T13:25:27.594Z,25.90
2022-10-13T13:27:54.664Z,25.90
2022-10-13T13:30:23.428Z,25.90
2022-10-13T13:32:51.008Z,25.90
2022-10-13T13:35:18.746Z,25.90
2022-10-13T13:37:53.933Z,25.90
2022-10-13T13:40:24.080Z,25.90
2022-10-13T13:42:51.149Z,25.90
2022-10-13T13:45:21.341Z,25.90
2022-10-13T13:47:48.447Z,25.90
2022-10-13T13:50:20.540Z,25.90
2022-10-13T13:52:47.652Z,25.90
2022-10-13T13:55:15.043Z,25.90
2022-10-13T13:57:42.893Z,25.90
2022-10-13T14:00:15.741Z,25.90
2022-10-13T14:02:44.050Z,25.90
2022-10-13T14:05:12.564Z,26.00
2022-10-13T14:07:40.403Z,26.00
2022-10-13T14:10:09.226Z,26.00
2022-10-13T14:12:36.300Z,26.00
2022-10-13T14:15:03.577Z,26.00
2022-10-13T14:17:30.628Z,26.10
2022-10-13T14:19:57.915Z,26.10
2022-10-13T14:22:25.253Z,26.10
2022-10-13T14:24:52.914Z,26.10
2022-10-13T14:27:19.935Z,26.10
2022-10-13T14:29:47.339Z,26.20
2022-10-13T14:32:15.335Z,26.20
2022-10-13T14:34:42.928Z,26.20
2022-10-13T14:37:10.060Z,26.20
2022-10-13T14:39:37.076Z,26.30
2022-10-13T14:42:04.184Z,26.30
2022-10-13T14:44:31.583Z,26.20
2022-10-13T14:46:58.554Z,26.20
2022-10-13T14:49:25.589Z,26.20
2022-10-13T14:51:52.605Z,26.20
2022-10-13T14:54:19.842Z,26.20
2022-10-13T14:56:47.899Z,26.20
2022-10-13T14:59:15.112Z,26.20
2022-10-13T15:01:43.209Z,26.20
2022-10-13T15:04:10.668Z,26.10
2022-10-13T15:06:39.481Z,26.10
2022-10-13T15:11:36.685Z,26.10
2022-10-13T15:14:03.872Z,26.10
2022-10-13T15:16:37.717Z,26.10
2022-10-13T15:19:04.875Z,26.10
2022-10-13T15:21:31.915Z,26.00
2022-10-13T15:23:59.026Z,26.00
2022-10-13T15:26:26.076Z,26.00
2022-10-13T15:28:53.974Z,26.00
2022-10-13T15:31:22.352Z,25.90
2022-10-13T15:33:51.890Z,25.90
2022-10-13T15:36:20.267Z,25.90
2022-10-13T15:38:47.491Z,25.90
2022-10-13T15:41:14.645Z,25.80
2022-10-13T15:43:41.731Z,25.80
2022-10-13T15:46:12.454Z,25.80
2022-10-13T15:48:39.630Z,25.70
2022-10-13T15:51:15.323Z,25.80
2022-10-13T15:53:42.554Z,25.70
2022-10-13T15:56:09.707Z,25.70
2022-10-13T15:58:36.763Z,25.70
2022-10-13T16:01:12.164Z,25.70
2022-10-13T16:03:39.688Z,25.70
2022-10-13T16:06:09.292Z,25.60
2022-10-13T16:08:37.610Z,25.60
2022-10-13T16:11:12.857Z,25.60
2022-10-13T16:13:40.829Z,25.60
2022-10-13T16:16:08.526Z,25.50
2022-10-13T16:18:37.603Z,25.50
2022-10-13T16:21:23.642Z,25.50
2022-10-13T16:23:50.684Z,25.50
2022-10-13T16:26:18.416Z,25.40
2022-10-13T16:28:46.962Z,25.40
2022-10-13T16:31:16.636Z,25.40
2022-10-13T16:33:45.340Z,25.40
2022-10-13T16:36:19.682Z,25.30
2022-10-13T16:38:48.093Z,25.30
2022-10-13T16:41:18.291Z,25.20
2022-10-13T16:43:45.882Z,25.20
2022-10-13T16:46:15.345Z,25.20
2022-10-13T16:48:44.303Z,25.10
2022-10-13T16:51:21.884Z,25.10
2022-10-13T16:53:59.838Z,25.10
2022-10-13T16:56:30.406Z,25.10
2022-10-13T16:59:00.376Z,25.00
2022-10-13T17:01:28.743Z,25.00
2022-10-13T17:03:56.604Z,25.00
2022-10-13T17:06:26.231Z,25.00
2022-10-13T17:08:53.368Z,24.90
2022-10-13T17:11:28.173Z,24.90
2022-10-13T17:13:57.325Z,24.90
2022-10-13T17:16:25.230Z,24.90
2022-10-13T17:18:52.242Z,24.90
2022-10-13T17:21:22.095Z,24.80
2022-10-13T17:23:49.742Z,24.80
2022-10-13T17:26:18.466Z,24.80
2022-10-13T17:28:45.852Z,24.80
2022-10-13T17:31:15.539Z,24.80
2022-10-13T17:33:43.555Z,24.80
2022-10-13T17:36:17.662Z,24.70
2022-10-13T17:38:45.868Z,24.70
2022-10-13T17:41:13.527Z,24.70
2022-10-13T17:43:41.487Z,24.70
2022-10-13T17:49:01.828Z,24.70
2022-10-13T17:51:28.983Z,24.70
2022-10-13T17:53:59.062Z,24.70
2022-10-13T17:56:26.871Z,24.70
2022-10-13T17:58:54.504Z,24.60
2022-10-13T18:01:33.655Z,24.60
2022-10-13T18:04:03.895Z,24.60
2022-10-13T18:06:38.046Z,24.60
2022-10-13T18:09:15.362Z,24.60
2022-10-13T18:11:48.723Z,24.60
2022-10-13T18:14:17.041Z,24.50
2022-10-13T18:16:44.138Z,24.50
2022-10-13T18:19:11.128Z,24.50
2022-10-13T18:21:38.120Z,24.50
2022-10-13T18:24:05.570Z,24.50
2022-10-13T18:26:35.827Z,24.50
2022-10-13T18:29:03.931Z,24.50
2022-10-13T18:31:32.823Z,24.50
2022-10-13T18:34:03.689Z,24.40
2022-10-13T18:36:42.996Z,24.40
2022-10-13T18:39:19.051Z,24.40
2022-10-13T18:41:46.666Z,24.40
2022-10-13T18:44:15.448Z,24.40
2022-10-13T18:46:42.747Z,24.30
2022-10-13T18:49:12.963Z,24.30
2022-10-13T18:51:40.061Z,24.30
2022-10-13T18:54:08.114Z,24.30
2022-10-13T18:56:37.066Z,24.30
2022-10-13T18:59:05.855Z,24.30
2022-10-13T19:01:35.600Z,24.30
2022-10-13T19:04:02.649Z,24.30
2022-10-13T19:06:32.484Z,24.20
2022-10-13T19:09:08.345Z,24.20
2022-10-13T19:11:36.198Z,24.20
2022-10-13T19:14:06.056Z,24.20
2022-10-13T19:16:37.205Z,24.20
2022-10-13T19:19:04.949Z,24.20
2022-10-13T19:21:32.784Z,24.10
2022-10-13T19:24:00.372Z,24.20
2022-10-13T19:26:30.951Z,24.10
2022-10-13T19:29:01.332Z,24.10
2022-10-13T19:31:30.870Z,24.10
2022-10-13T19:33:58.608Z,24.10
2022-10-13T19:36:37.728Z,24.10
2022-10-13T19:39:12.006Z,24.10
2022-10-13T19:41:39.432Z,24.10
2022-10-13T19:44:06.561Z,24.00
2022-10-13T19:46:35.728Z,24.10
2022-10-13T19:49:04.261Z,24.10
2022-10-13T19:51:31.552Z,24.00
2022-10-13T19:53:58.597Z,24.00
2022-10-13T19:56:31.713Z,24.00
2022-10-13T19:58:59.606Z,24.00
2022-10-13T20:01:27.024Z,24.00
2022-10-13T20:03:54.785Z,24.00
2022-10-13T20:06:22.232Z,24.00
2022-10-13T20:08:49.503Z,24.00
2022-10-13T20:11:23.486Z,24.00
2022-10-13T20:13:51.703Z,24.00
2022-10-13T20:16:21.498Z,24.00
2022-10-13T20:18:57.435Z,24.00
2022-10-13T20:21:25.834Z,24.00
2022-10-13T20:23:53.348Z,24.00
2022-10-13T20:26:21.429Z,23.90
2022-10-13T20:28:50.345Z,23.90
2022-10-13T20:31:19.981Z,23.90
2022-10-13T20:33:49.487Z,23.90
2022-10-13T20:36:18.074Z,23.90
2022-10-13T20:38:45.315Z,23.90
2022-10-13T20:41:28.455Z,23.90
2022-10-13T20:43:58.264Z,23.90
2022-10-13T20:46:25.959Z,23.90
2022-10-13T20:51:42.772Z,23.80
2022-10-13T20:54:11.697Z,23.80
2022-10-13T20:56:38.802Z,23.80
2022-10-13T20:59:07.775Z,23.80
2022-10-13T21:01:34.922Z,23.80
2022-10-13T21:04:01.973Z,23.80
2022-10-13T21:06:29.024Z,23.80
2022-10-13T21:08:56.505Z,23.80
2022-10-13T21:11:24.788Z,23.80
2022-10-13T21:13:52.511Z,23.80
2022-10-13T21:16:23.500Z,23.80
2022-10-13T21:18:51.755Z,23.70
2022-10-13T21:21:22.533Z,23.70
2022-10-13T21:23:53.948Z,23.70
2022-10-13T21:26:22.467Z,23.70
2022-10-13T21:28:50.791Z,23.70
2022-10-13T21:31:19.672Z,23.70
2022-10-13T21:33:46.684Z,23.70
2022-10-13T21:36:28.851Z,23.70
2022-10-13T21:38:59.832Z,23.70
2022-10-13T21:41:28.032Z,23.70
2022-10-13T21:43:55.823Z,23.70
2022-10-13T21:46:26.031Z,23.70
2022-10-13T21:48:55.314Z,23.70
2022-10-13T21:51:26.180Z,23.70
2022-10-13T21:53:55.076Z,23.70
2022-10-13T21:56:23.575Z,23.70
2022-10-13T21:58:50.693Z,23.70
2022-10-13T22:01:19.207Z,23.70
2022-10-13T22:03:47.397Z,23.70
2022-10-13T22:06:19.025Z,23.60
2022-10-13T22:08:49.093Z,23.60
2022-10-13T22:11:17.424Z,23.60
2022-10-13T22:13:44.438Z,23.60
2022-10-13T22:16:18.867Z,23.70
2022-10-13T22:18:46.154Z,23.70
2022-10-13T22:21:16.863Z,23.60
2022-10-13T22:23:44.925Z,23.60
2022-10-13T22:26:13.101Z,23.60
2022-10-13T22:28:40.565Z,23.60
2022-10-13T22:31:10.068Z,23.60
2022-10-13T22:33:39.298Z,23.60
2022-10-13T22:36:17.702Z,23.60
2022-10-13T22:38:46.327Z,23.60
2022-10-13T22:41:14.892Z,23.60
2022-10-13T22:43:44.498Z,23.60
2022-10-13T22:46:16.154Z,23.60
2022-10-13T22:48:44.121Z,23.60
2022-10-13T22:51:13.584Z,23.60
2022-10-13T22:53:40.542Z,23.60
2022-10-13T22:56:09.268Z,23.60
2022-10-13T22:58:36.541Z,23.50
2022-10-13T23:01:08.738Z,23.60
2022-10-13T23:03:36.217Z,23.50
2022-10-13T23:06:04.225Z,23.60
2022-10-13T23:08:31.772Z,23.50
2022-10-13T23:10:59.059Z,23.60
2022-10-13T23:13:26.639Z,23.50
2022-10-13T23:15:53.901Z,23.50
2022-10-13T23:18:20.913Z,23.50
2022-10-13T23:20:47.899Z,23.50
2022-10-13T23:23:14.907Z,23.50
2022-10-13T23:25:41.939Z,23.50
2022-10-13T23:28:09.451Z,23.50
2022-10-13T23:30:37.330Z,23.50
2022-10-13T23:33:04.327Z,23.50
2022-10-13T23:35:31.317Z,23.50
2022-10-13T23:37:58.489Z,23.50
2022-10-13T23:40:25.504Z,23.50
2022-10-13T23:42:52.565Z,23.50
2022-10-13T23:45:19.599Z,23.50
2022-10-13T23:47:46.648Z,23.50
2022-10-13T23:50:13.633Z,23.50
2022-10-13T23:52:40.641Z,23.50
2022-10-13T23:55:08.003Z,23.50
2022-10-13T23:57:35.175Z,23.50
